createdAt,value
2024-05-09T00:01:49.838Z,7.46
2024-05-09T00:04:20.721Z,7.40
2024-05-09T00:06:50.220Z,7.39
2024-05-09T00:09:22.218Z,7.28
2024-05-09T00:11:51.828Z,7.31
2024-05-09T00:14:21.389Z,7.36
2024-05-09T00:16:51.070Z,7.33
2024-05-09T00:19:20.589Z,7.24
2024-05-09T00:21:50.092Z,7.21
2024-05-09T00:24:22.095Z,7.11
2024-05-09T00:26:51.479Z,7.22
2024-05-09T00:29:21.156Z,7.27
2024-05-09T00:31:50.885Z,7.42
2024-05-09T00:34:20.522Z,7.38
2024-05-09T00:36:50.060Z,7.38
2024-05-09T00:39:21.963Z,7.28
2024-05-09T00:41:51.368Z,7.07
2024-05-09T00:44:20.784Z,6.95
2024-05-09T00:46:54.530Z,6.89
2024-05-09T00:49:24.682Z,6.81
2024-05-09T00:51:54.183Z,6.84
2024-05-09T00:54:26.573Z,7.03
2024-05-09T00:56:56.120Z,6.98
2024-05-09T00:59:26.465Z,6.93
2024-05-09T01:01:56.235Z,6.93
2024-05-09T01:04:25.708Z,7.00
2024-05-09T01:06:55.114Z,6.85
2024-05-09T01:09:27.080Z,6.73
2024-05-09T01:12:01.606Z,6.78
2024-05-09T01:14:33.533Z,6.67
2024-05-09T01:17:06.220Z,6.77
2024-05-09T01:19:36.579Z,6.85
2024-05-09T01:22:08.202Z,6.73
2024-05-09T01:24:54.003Z,6.62
2024-05-09T01:27:24.508Z,6.68
2024-05-09T01:29:53.899Z,6.63
2024-05-09T01:32:23.418Z,6.51
2024-05-09T01:34:52.875Z,6.45
2024-05-09T01:37:22.307Z,6.38
2024-05-09T01:39:54.280Z,6.23
2024-05-09T01:42:23.714Z,6.14
2024-05-09T01:44:53.589Z,6.36
2024-05-09T01:50:55.822Z,6.13
2024-05-09T01:53:25.180Z,6.00
2024-05-09T01:53:30.648Z,6.29
2024-05-09T01:55:59.390Z,5.93
2024-05-09T01:58:32.397Z,5.89
2024-05-09T02:01:01.850Z,6.02
2024-05-09T02:03:31.617Z,5.97
2024-05-09T02:06:03.790Z,6.01
2024-05-09T02:08:33.403Z,6.11
2024-05-09T02:11:05.595Z,6.22
2024-05-09T02:13:34.928Z,6.07
2024-05-09T02:16:04.349Z,6.16
2024-05-09T02:18:33.978Z,5.92
2024-05-09T02:21:03.683Z,5.86
2024-05-09T02:23:33.354Z,5.80
2024-05-09T02:26:05.798Z,6.01
2024-05-09T02:28:35.495Z,5.92
2024-05-09T02:31:05.744Z,5.78
2024-05-09T02:33:35.627Z,5.84
2024-05-09T02:36:07.094Z,5.86
2024-05-09T02:38:34.072Z,5.85
2024-05-09T02:41:07.848Z,5.78
2024-05-09T02:43:34.792Z,5.76
2024-05-09T02:46:04.197Z,5.67
2024-05-09T02:48:31.075Z,5.49
2024-05-09T02:51:00.528Z,5.45
2024-05-09T02:53:27.348Z,5.38
2024-05-09T02:55:57.501Z,5.44
2024-05-09T02:58:26.886Z,5.45
2024-05-09T03:00:56.332Z,5.30
2024-05-09T03:03:23.368Z,5.22
2024-05-09T03:05:55.932Z,5.27
2024-05-09T03:08:25.113Z,5.13
2024-05-09T03:10:54.481Z,5.08
2024-05-09T03:13:21.548Z,5.08
2024-05-09T03:15:53.455Z,5.21
2024-05-09T03:18:22.286Z,5.19
2024-05-09T03:20:54.015Z,5.04
2024-05-09T03:23:20.941Z,5.10
2024-05-09T03:25:50.614Z,5.11
2024-05-09T03:28:18.071Z,5.16
2024-05-09T03:30:51.262Z,5.19
2024-05-09T03:33:24.997Z,5.12
2024-05-09T03:35:52.052Z,5.22
2024-05-09T03:38:21.626Z,5.33
2024-05-09T03:40:51.864Z,5.12
2024-05-09T03:43:22.534Z,5.04
2024-05-09T03:45:53.009Z,5.15
2024-05-09T03:48:22.780Z,5.03
2024-05-09T03:50:52.281Z,5.11
2024-05-09T03:53:20.401Z,4.98
2024-05-09T03:55:49.936Z,4.98
2024-05-09T03:58:16.744Z,5.12
2024-05-09T04:00:46.330Z,4.95
2024-05-09T04:03:13.721Z,4.92
2024-05-09T04:05:48.550Z,4.91
2024-05-09T04:08:15.908Z,5.01
2024-05-09T04:10:45.698Z,4.88
2024-05-09T04:13:12.652Z,4.92
2024-05-09T04:15:42.024Z,4.88
2024-05-09T04:18:09.220Z,4.83
2024-05-09T04:20:40.716Z,4.83
2024-05-09T04:23:12.739Z,4.67
2024-05-09T04:25:45.375Z,4.55
2024-05-09T04:28:12.669Z,4.60
2024-05-09T04:30:42.750Z,4.64
2024-05-09T04:33:13.597Z,4.63
2024-05-09T04:35:45.133Z,4.75
2024-05-09T04:38:15.788Z,4.92
2024-05-09T04:40:45.681Z,4.89
2024-05-09T04:43:16.176Z,4.79
2024-05-09T04:45:45.839Z,4.85
2024-05-09T04:48:13.106Z,4.91
2024-05-09T04:50:43.032Z,4.73
2024-05-09T04:53:11.212Z,4.72
2024-05-09T04:55:43.907Z,4.65
2024-05-09T04:58:11.566Z,4.73
2024-05-09T05:00:41.728Z,4.79
2024-05-09T05:03:12.719Z,4.90
2024-05-09T05:05:45.688Z,4.93
2024-05-09T05:08:13.781Z,5.00
2024-05-09T05:10:47.202Z,5.03
2024-05-09T05:13:20.638Z,5.10
2024-05-09T05:15:52.509Z,5.20
2024-05-09T05:18:19.780Z,5.30
2024-05-09T05:20:49.732Z,5.38
2024-05-09T05:23:19.077Z,5.43
2024-05-09T05:25:52.458Z,5.49
2024-05-09T05:28:19.953Z,5.59
2024-05-09T05:30:49.606Z,5.69
2024-05-09T05:33:18.737Z,5.78
2024-05-09T05:35:48.854Z,5.93
2024-05-09T05:38:15.841Z,6.11
2024-05-09T05:40:45.599Z,6.19
2024-05-09T05:43:23.142Z,6.24
2024-05-09T05:45:53.285Z,6.44
2024-05-09T05:48:20.240Z,6.54
2024-05-09T05:50:49.660Z,6.54
2024-05-09T05:53:16.602Z,6.63
2024-05-09T05:55:46.011Z,6.71
2024-05-09T05:58:14.398Z,6.86
2024-05-09T06:00:46.876Z,7.06
2024-05-09T06:03:14.324Z,7.13
2024-05-09T06:05:47.235Z,7.20
2024-05-09T06:08:14.262Z,7.30
2024-05-09T06:10:44.110Z,7.45
2024-05-09T06:13:13.764Z,7.50
2024-05-09T06:15:46.500Z,7.60
2024-05-09T06:18:14.279Z,7.65
2024-05-09T06:20:44.600Z,7.80
2024-05-09T06:23:12.178Z,7.93
2024-05-09T06:25:42.409Z,7.99
2024-05-09T06:28:09.446Z,8.13
2024-05-09T06:30:42.476Z,8.25
2024-05-09T06:33:14.788Z,8.40
2024-05-09T06:35:45.836Z,8.42
2024-05-09T06:38:12.991Z,8.47
2024-05-09T06:40:44.083Z,8.59
2024-05-09T06:43:12.137Z,8.76
2024-05-09T06:45:41.488Z,8.89
2024-05-09T06:48:09.469Z,8.98
2024-05-09T06:50:41.946Z,9.18
2024-05-09T06:53:09.211Z,9.23
2024-05-09T06:55:39.140Z,9.37
2024-05-09T06:58:06.987Z,9.47
2024-05-09T07:00:39.775Z,9.63
2024-05-09T07:03:08.651Z,9.83
2024-05-09T07:05:38.384Z,10.09
2024-05-09T07:08:08.062Z,10.27
2024-05-09T07:10:38.092Z,10.47
2024-05-09T07:13:08.412Z,10.58
2024-05-09T07:15:37.779Z,10.71
2024-05-09T07:18:09.852Z,10.77
2024-05-09T07:20:39.443Z,10.84
2024-05-09T07:23:11.347Z,10.92
2024-05-09T07:25:40.923Z,11.04
2024-05-09T07:28:10.881Z,11.20
2024-05-09T07:30:40.434Z,11.32
2024-05-09T07:33:07.413Z,11.46
2024-05-09T07:35:36.912Z,11.57
2024-05-09T07:38:03.993Z,11.69
2024-05-09T07:40:37.127Z,11.86
2024-05-09T07:43:04.515Z,12.24
2024-05-09T07:53:36.648Z,12.88
2024-05-09T07:56:00.581Z,13.13
2024-05-09T07:58:27.925Z,13.35
2024-05-09T08:00:57.659Z,13.56
2024-05-09T08:03:28.674Z,13.76
2024-05-09T08:05:59.891Z,13.91
2024-05-09T08:08:26.919Z,14.13
2024-05-09T08:10:57.166Z,14.26
2024-05-09T08:13:27.592Z,14.46
2024-05-09T08:15:58.527Z,14.64
2024-05-09T08:18:25.476Z,14.82
2024-05-09T08:20:56.393Z,15.04
2024-05-09T08:23:24.427Z,15.13
2024-05-09T08:25:55.729Z,15.10
2024-05-09T08:28:27.738Z,15.20
2024-05-09T08:30:57.500Z,15.49
2024-05-09T08:33:27.627Z,15.72
2024-05-09T08:35:57.080Z,15.79
2024-05-09T08:38:23.879Z,15.88
2024-05-09T08:40:54.277Z,16.10
2024-05-09T08:43:22.496Z,16.35
2024-05-09T08:45:54.661Z,16.55
2024-05-09T08:48:23.136Z,16.68
2024-05-09T08:50:54.889Z,16.78
2024-05-09T08:53:22.655Z,16.97
2024-05-09T08:55:53.893Z,16.98
2024-05-09T08:58:21.104Z,16.94
2024-05-09T09:01:02.895Z,17.06
2024-05-09T09:03:33.682Z,17.34
2024-05-09T09:06:06.537Z,17.34
2024-05-09T09:08:33.576Z,17.61
2024-05-09T09:11:03.793Z,17.77
2024-05-09T09:13:31.200Z,17.94
2024-05-09T09:16:05.022Z,17.91
2024-05-09T09:18:33.038Z,17.90
2024-05-09T09:21:03.576Z,17.94
2024-05-09T09:23:30.780Z,18.16
2024-05-09T09:26:01.537Z,18.18
2024-05-09T09:28:29.525Z,18.23
2024-05-09T09:31:06.452Z,18.44
2024-05-09T09:33:35.916Z,18.52
2024-05-09T09:36:08.970Z,18.51
2024-05-09T09:38:37.654Z,18.40
2024-05-09T09:41:10.759Z,18.36
2024-05-09T09:43:37.651Z,18.45
2024-05-09T09:46:12.746Z,18.45
2024-05-09T09:48:40.716Z,18.70
2024-05-09T09:51:11.136Z,18.97
2024-05-09T09:53:38.837Z,18.99
2024-05-09T09:56:10.532Z,18.93
2024-05-09T09:58:38.885Z,19.22
2024-05-09T10:01:10.917Z,19.23
2024-05-09T10:03:37.997Z,18.91
2024-05-09T10:06:08.311Z,19.27
2024-05-09T10:08:35.815Z,19.53
2024-05-09T10:11:06.938Z,19.64
2024-05-09T10:13:34.753Z,19.72
2024-05-09T10:16:13.251Z,19.84
2024-05-09T10:18:41.075Z,19.78
2024-05-09T10:21:20.809Z,19.67
2024-05-09T10:23:57.665Z,19.91
2024-05-09T10:26:33.171Z,19.81
2024-05-09T10:29:02.507Z,20.00
2024-05-09T10:31:35.076Z,20.40
2024-05-09T10:34:02.843Z,20.37
2024-05-09T10:36:32.519Z,19.91
2024-05-09T10:38:59.815Z,20.02
2024-05-09T10:41:29.284Z,20.19
2024-05-09T10:43:56.384Z,19.22
2024-05-09T10:46:25.734Z,19.77
2024-05-09T10:48:55.214Z,19.91
2024-05-09T10:51:24.579Z,20.02
2024-05-09T10:53:52.684Z,20.16
2024-05-09T10:56:22.141Z,20.29
2024-05-09T10:58:51.582Z,20.05
2024-05-09T11:01:21.147Z,20.40
2024-05-09T11:03:48.473Z,20.52
2024-05-09T11:06:21.080Z,20.84
2024-05-09T11:08:48.014Z,20.81
2024-05-09T11:11:17.837Z,21.11
2024-05-09T11:13:44.666Z,21.05
2024-05-09T11:16:20.213Z,21.20
2024-05-09T11:18:55.367Z,21.38
2024-05-09T11:21:27.724Z,21.56
2024-05-09T11:23:54.523Z,21.18
2024-05-09T11:26:25.289Z,20.97
2024-05-09T11:28:52.251Z,21.16
2024-05-09T11:31:21.993Z,21.40
2024-05-09T11:33:49.165Z,21.41
2024-05-09T11:36:19.173Z,21.64
2024-05-09T11:38:48.624Z,21.26
2024-05-09T11:41:19.891Z,21.36
2024-05-09T11:43:46.656Z,21.10
2024-05-09T11:46:16.171Z,21.44
2024-05-09T11:48:43.204Z,20.07
2024-05-09T11:51:12.725Z,20.72
2024-05-09T11:53:39.475Z,21.31
2024-05-09T11:56:12.035Z,21.72
2024-05-09T11:58:39.576Z,21.71
2024-05-09T12:01:08.983Z,21.79
2024-05-09T12:03:37.850Z,21.90
2024-05-09T12:06:07.645Z,21.45
2024-05-09T12:08:34.646Z,21.81
2024-05-09T12:11:04.046Z,21.88
2024-05-09T12:13:36.138Z,21.72
2024-05-09T12:16:05.450Z,21.53
2024-05-09T12:18:34.119Z,21.57
2024-05-09T12:21:03.528Z,21.59
2024-05-09T12:23:30.232Z,21.74
2024-05-09T12:25:59.563Z,21.73
2024-05-09T12:28:26.566Z,21.28
2024-05-09T12:30:58.545Z,21.19
2024-05-09T12:33:25.415Z,21.54
2024-05-09T12:35:55.522Z,21.59
2024-05-09T12:38:22.257Z,21.86
2024-05-09T12:40:51.802Z,21.96
2024-05-09T12:43:18.618Z,22.26
2024-05-09T12:45:48.131Z,22.33
2024-05-09T12:48:20.168Z,22.04
2024-05-09T12:50:47.027Z,22.26
2024-05-09T12:53:16.769Z,22.45
2024-05-09T12:55:53.031Z,22.53
2024-05-09T12:58:26.470Z,22.36
2024-05-09T13:00:53.404Z,22.24
2024-05-09T13:03:25.908Z,21.77
2024-05-09T13:05:52.745Z,22.11
2024-05-09T13:08:23.086Z,22.38
2024-05-09T13:10:50.347Z,22.34
2024-05-09T13:13:20.097Z,22.03
2024-05-09T13:15:47.162Z,22.08
2024-05-09T13:18:16.690Z,22.25
2024-05-09T13:20:47.419Z,22.34
2024-05-09T13:23:16.762Z,22.43
2024-05-09T13:25:43.569Z,22.19
2024-05-09T13:28:13.244Z,22.03
2024-05-09T13:30:41.966Z,21.97
2024-05-09T13:33:13.015Z,21.74
2024-05-09T13:35:45.537Z,21.63
2024-05-09T13:38:22.357Z,20.86
2024-05-09T13:40:50.231Z,20.70
2024-05-09T13:43:22.012Z,20.95
2024-05-09T13:45:49.333Z,20.99
2024-05-09T13:48:19.736Z,20.94
2024-05-09T13:50:46.873Z,20.99
2024-05-09T13:53:16.350Z,20.84
2024-05-09T13:55:45.779Z,20.84
2024-05-09T13:58:15.385Z,20.58
2024-05-09T14:00:47.168Z,20.81
2024-05-09T14:03:20.058Z,20.93
2024-05-09T14:05:48.310Z,20.83
2024-05-09T14:08:19.598Z,20.88
2024-05-09T14:10:49.624Z,21.02
2024-05-09T14:13:19.481Z,20.96
2024-05-09T14:15:46.676Z,20.89
2024-05-09T14:18:16.221Z,20.64
2024-05-09T14:20:43.367Z,20.71
2024-05-09T14:23:13.133Z,20.51
2024-05-09T14:25:42.459Z,20.52
2024-05-09T14:28:15.568Z,20.24
2024-05-09T14:30:43.007Z,20.06
2024-05-09T14:33:12.706Z,20.02
2024-05-09T14:35:39.582Z,20.02
2024-05-09T14:38:09.969Z,20.21
2024-05-09T14:40:42.042Z,20.43
2024-05-09T14:43:16.612Z,20.42
2024-05-09T14:45:44.124Z,20.26
2024-05-09T14:48:14.642Z,20.38
2024-05-09T14:50:42.421Z,20.51
2024-05-09T14:53:13.615Z,20.75
2024-05-09T14:55:42.954Z,20.76
2024-05-09T14:58:15.998Z,20.81
2024-05-09T15:00:48.474Z,20.88
2024-05-09T15:03:21.658Z,20.93
2024-05-09T15:05:49.322Z,20.97
2024-05-09T15:08:19.817Z,21.09
2024-05-09T15:10:47.310Z,21.13
2024-05-09T15:13:19.592Z,21.09
2024-05-09T15:15:46.905Z,20.65
2024-05-09T15:18:16.652Z,20.77
2024-05-09T15:20:44.785Z,20.83
2024-05-09T15:23:14.459Z,20.87
2024-05-09T15:25:41.214Z,20.84
2024-05-09T15:28:10.687Z,20.96
2024-05-09T15:30:42.052Z,20.97
2024-05-09T15:33:13.191Z,21.01
2024-05-09T15:35:41.641Z,20.84
2024-05-09T15:38:11.569Z,20.72
2024-05-09T15:40:40.532Z,20.66
2024-05-09T15:43:11.778Z,20.63
2024-05-09T15:45:41.709Z,20.57
2024-05-09T15:48:11.980Z,20.36
2024-05-09T15:50:41.455Z,20.31
2024-05-09T15:53:13.144Z,20.09
2024-05-09T15:55:41.330Z,20.17
2024-05-09T15:58:11.066Z,20.11
2024-05-09T16:00:41.628Z,19.89
2024-05-09T16:03:16.039Z,19.82
2024-05-09T16:05:43.900Z,19.92
2024-05-09T16:08:13.612Z,19.95
2024-05-09T16:10:44.239Z,20.06
2024-05-09T16:13:14.692Z,20.13
2024-05-09T16:15:43.254Z,20.16
2024-05-09T16:18:15.532Z,20.09
2024-05-09T16:20:44.733Z,20.16
2024-05-09T16:23:15.647Z,20.09
2024-05-09T16:25:45.314Z,20.51
2024-05-09T16:28:15.016Z,20.64
2024-05-09T16:30:42.138Z,20.61
2024-05-09T16:33:11.807Z,20.34
2024-05-09T16:35:41.426Z,20.11
2024-05-09T16:38:10.772Z,19.84
2024-05-09T16:40:40.419Z,19.67
2024-05-09T16:43:11.192Z,19.63
2024-05-09T16:45:39.504Z,19.61
2024-05-09T16:48:10.061Z,19.56
2024-05-09T16:50:38.335Z,19.57
2024-05-09T16:53:10.373Z,19.46
2024-05-09T16:55:37.211Z,19.38
2024-05-09T16:58:08.227Z,19.28
2024-05-09T17:00:41.074Z,19.15
2024-05-09T17:03:15.315Z,19.03
2024-05-09T17:05:43.378Z,18.97
2024-05-09T17:08:15.657Z,18.99
2024-05-09T17:10:42.741Z,18.89
2024-05-09T17:13:12.563Z,18.81
2024-05-09T17:15:41.955Z,18.77
2024-05-09T17:18:11.466Z,18.76
2024-05-09T17:20:38.334Z,18.78
2024-05-09T17:23:13.112Z,18.63
2024-05-09T17:25:43.529Z,18.65
2024-05-09T17:28:13.441Z,18.48
2024-05-09T17:30:41.954Z,18.54
2024-05-09T17:33:13.260Z,18.44
2024-05-09T17:35:40.643Z,18.38
2024-05-09T17:38:10.443Z,18.37
2024-05-09T17:40:38.602Z,18.36
2024-05-09T17:43:11.779Z,18.34
2024-05-09T17:45:40.060Z,18.19
2024-05-09T17:48:11.925Z,18.16
2024-05-09T17:50:39.943Z,18.15
2024-05-09T17:53:10.821Z,18.11
2024-05-09T17:55:38.179Z,18.03
2024-05-09T17:58:07.992Z,18.02
2024-05-09T18:00:40.610Z,17.94
2024-05-09T18:03:13.926Z,17.81
2024-05-09T18:05:41.827Z,17.80
2024-05-09T18:08:11.825Z,17.76
2024-05-09T18:10:40.480Z,17.65
2024-05-09T18:13:10.359Z,17.65
2024-05-09T18:15:40.460Z,17.65
2024-05-09T18:18:10.821Z,17.66
2024-05-09T18:20:43.791Z,17.55
2024-05-09T18:23:17.094Z,17.51
2024-05-09T18:25:45.241Z,17.45
2024-05-09T18:28:14.944Z,17.45
2024-05-09T18:30:44.581Z,17.35
2024-05-09T18:33:14.284Z,17.30
2024-05-09T18:35:42.965Z,17.34
2024-05-09T18:38:12.557Z,17.01
2024-05-09T18:40:41.061Z,17.02
2024-05-09T18:43:12.368Z,17.02
2024-05-09T18:45:39.670Z,17.02
2024-05-09T18:48:12.420Z,16.96
2024-05-09T18:50:41.071Z,16.95
2024-05-09T18:53:20.081Z,16.81
2024-05-09T18:55:46.804Z,16.70
2024-05-09T18:58:17.253Z,16.66
2024-05-09T19:00:46.658Z,16.63
2024-05-09T19:03:18.781Z,16.47
2024-05-09T19:05:46.507Z,16.45
2024-05-09T19:08:16.540Z,16.44
2024-05-09T19:10:46.413Z,16.38
2024-05-09T19:13:16.521Z,16.35
2024-05-09T19:15:44.362Z,16.08
2024-05-09T19:18:15.210Z,16.24
2024-05-09T19:20:42.775Z,16.13
2024-05-09T19:23:12.924Z,16.10
2024-05-09T19:25:39.862Z,16.04
2024-05-09T19:28:12.000Z,16.10
2024-05-09T19:30:41.840Z,15.79
2024-05-09T19:33:13.516Z,15.79
2024-05-09T19:35:41.143Z,15.59
2024-05-09T19:38:10.592Z,15.36
2024-05-09T19:40:37.404Z,15.28
2024-05-09T19:43:07.475Z,15.18
2024-05-09T19:45:37.023Z,15.20
2024-05-09T19:48:07.127Z,15.15
2024-05-09T19:50:41.366Z,14.98
2024-05-09T19:53:14.213Z,14.86
2024-05-09T19:55:41.690Z,14.99
2024-05-09T19:58:12.295Z,14.90
2024-05-09T20:00:43.829Z,14.66
2024-05-09T20:03:15.566Z,14.44
2024-05-09T20:05:44.669Z,14.35
2024-05-09T20:08:14.519Z,14.36
2024-05-09T20:10:41.432Z,14.13
2024-05-09T20:13:10.870Z,14.10
2024-05-09T20:15:38.270Z,13.81
2024-05-09T20:18:10.894Z,13.85
2024-05-09T20:20:41.670Z,13.83
2024-05-09T20:23:13.732Z,13.80
2024-05-09T20:25:40.861Z,13.55
2024-05-09T20:28:10.989Z,13.38
2024-05-09T20:30:38.286Z,13.22
2024-05-09T20:33:10.721Z,13.13
2024-05-09T20:35:37.842Z,13.06
2024-05-09T20:38:07.758Z,12.78
2024-05-09T20:40:37.835Z,12.84
2024-05-09T20:43:08.920Z,12.88
2024-05-09T20:45:36.430Z,12.85
2024-05-09T20:48:06.234Z,12.86
2024-05-09T20:50:39.875Z,12.87
2024-05-09T20:53:13.192Z,13.07
2024-05-09T20:55:41.250Z,13.06
2024-05-09T20:58:11.018Z,13.04
2024-05-09T21:00:41.942Z,13.00
2024-05-09T21:03:16.370Z,13.08
2024-05-09T21:05:47.441Z,13.00
2024-05-09T21:08:17.666Z,12.76
2024-05-09T21:10:44.603Z,12.63
2024-05-09T21:13:14.194Z,12.58
2024-05-09T21:15:41.323Z,12.39
2024-05-09T21:18:11.118Z,12.45
2024-05-09T21:20:38.148Z,12.47
2024-05-09T21:23:10.464Z,12.30
2024-05-09T21:25:37.716Z,12.20
2024-05-09T21:28:07.575Z,12.28
2024-05-09T21:30:41.328Z,12.04
2024-05-09T21:33:14.238Z,11.90
2024-05-09T21:35:42.301Z,11.96
2024-05-09T21:38:15.050Z,11.84
2024-05-09T21:40:42.780Z,11.69
2024-05-09T21:43:12.514Z,11.56
2024-05-09T21:45:39.475Z,11.37
2024-05-09T21:48:10.164Z,11.44
2024-05-09T21:50:40.952Z,11.51
2024-05-09T21:53:14.354Z,11.46
2024-05-09T21:55:41.411Z,11.49
2024-05-09T21:58:10.907Z,11.53
2024-05-09T22:00:39.586Z,11.56
2024-05-09T22:03:10.913Z,11.48
2024-05-09T22:05:42.150Z,11.47
2024-05-09T22:08:14.620Z,11.61
2024-05-09T22:10:41.822Z,11.50
2024-05-09T22:13:11.611Z,11.18
2024-05-09T22:15:40.321Z,11.12
2024-05-09T22:18:11.477Z,11.20
2024-05-09T22:20:44.650Z,11.19
2024-05-09T22:23:18.139Z,11.10
2024-05-09T22:25:45.055Z,11.10
2024-05-09T22:28:16.148Z,10.97
2024-05-09T22:30:45.624Z,10.80
2024-05-09T22:33:15.674Z,10.72
2024-05-09T22:35:42.651Z,10.63
2024-05-09T22:38:12.081Z,10.72
2024-05-09T22:40:47.470Z,10.85
2024-05-09T22:43:24.525Z,10.72
2024-05-09T22:45:52.408Z,10.69
2024-05-09T22:48:23.395Z,10.70
2024-05-09T22:50:50.502Z,10.69
2024-05-09T22:53:20.409Z,10.62
2024-05-09T22:55:50.035Z,10.48
2024-05-09T22:58:20.801Z,10.41
2024-05-09T23:00:48.044Z,10.41
2024-05-09T23:03:20.834Z,10.46
2024-05-09T23:05:50.720Z,10.41
2024-05-09T23:08:20.263Z,10.14
2024-05-09T23:10:49.994Z,10.32
2024-05-09T23:13:19.717Z,10.40
2024-05-09T23:15:46.703Z,10.18
2024-05-09T23:18:19.401Z,10.25
2024-05-09T23:20:46.252Z,10.22
2024-05-09T23:23:15.655Z,10.16
2024-05-09T23:25:42.451Z,10.07
2024-05-09T23:28:14.697Z,9.93
2024-05-09T23:30:42.229Z,10.01
2024-05-09T23:33:13.803Z,10.02
2024-05-09T23:35:41.890Z,10.12
2024-05-09T23:38:11.454Z,10.10
2024-05-09T23:40:40.826Z,10.12
2024-05-09T23:43:14.233Z,10.03
2024-05-09T23:45:41.800Z,9.84
2024-05-09T23:48:12.126Z,9.81
2024-05-09T23:50:40.392Z,9.72
2024-05-09T23:53:11.182Z,9.74
2024-05-09T23:55:38.617Z,9.70
2024-05-09T23:58:08.849Z,9.74
